PWSweather.com
Personal Weather Stations
Station Observations
WAREHAM1
West Wareham, MA 02576

West Wareham, MA 02576

Lat: 41.7961059, Lon: -70.775612

Elevation: 88

Station Type: Davis Vantage Vue

http://www.gateway2capecod.com

Latest ConditionsUpdated 1:22:38 PM EST Monday, Dec 22, 2014
Currently Today's Max Today's Min Today's Average
Temperature 44.8°F7.1°C 45.3°F7.4°C 34.0°F1.1°C 37.5°F3.1°C
Dew Point 40.8°F4.9°C 43.2°F6.2°C 32.9°F0.5°C 36.2°F2.3°C
Winds 0.9 mph E1.4 kmh E 2.9 mph ENE4.7 kmh ENE - 0.7 mph 1.1 kmh
Wind Gusts 2.9 mph4.7 kmh 6.9 mph11.1 kmh - -
Humidity 86% 97% 84% 95%
Pressure 30.34 in1027.4 mb 30.39 in1029.1 mb 30.33 in1027.1 mb -
Hour Temp Dew Point Humidity Winds Wind Gusts Pressure Precip Precip Rate Daily Precip Total
01:22 PM 44.8°F7.1°C 40.8°F4.9°C 86% 0.9 mph E1.4 kmh E 2.9 mph4.7 kmh 30.34 in1027.4 mb 0.00 in0.0 mm 0.00 in/hr0.0 mm/hr 0.00 in0.0 mm
01:12 PM 44.8°F7.1°C 40.3°F4.6°C 84% 0.9 mph NE1.4 kmh NE 4.0 mph6.4 kmh 30.35 in1027.8 mb 0.00 in0.0 mm 0.00 in/hr0.0 mm/hr 0.00 in0.0 mm
01:02 PM 45.0°F7.2°C 40.5°F4.7°C 84% 0.9 mph E1.4 kmh E 4.9 mph7.9 kmh 30.35 in1027.8 mb 0.00 in0.0 mm 0.00 in/hr0.0 mm/hr 0.00 in0.0 mm
12:52 PM 45.3°F7.4°C 41.0°F5.0°C 85% 0.9 mph E1.4 kmh E 4.0 mph6.4 kmh 30.34 in1027.4 mb 0.00 in0.0 mm 0.00 in/hr0.0 mm/hr 0.00 in0.0 mm
12:42 PM 45.3°F7.4°C 41.0°F5.0°C 85% 0.9 mph SE1.4 kmh SE 2.9 mph4.7 kmh 30.34 in1027.4 mb 0.00 in0.0 mm 0.00 in/hr0.0 mm/hr 0.00 in0.0 mm
12:32 PM 45.1°F7.3°C 40.8°F4.9°C 85% 2.0 mph SE3.2 kmh SE 6.9 mph11.1 kmh 30.34 in1027.4 mb 0.00 in0.0 mm 0.00 in/hr0.0 mm/hr 0.00 in0.0 mm
12:22 PM 45.0°F7.2°C 41.4°F5.2°C 87% 2.0 mph ESE3.2 kmh ESE 6.0 mph9.7 kmh 30.34 in1027.4 mb 0.00 in0.0 mm 0.00 in/hr0.0 mm/hr 0.00 in0.0 mm
12:12 PM 44.8°F7.1°C 41.4°F5.2°C 88% 2.0 mph E3.2 kmh E 6.0 mph9.7 kmh 30.33 in1027.1 mb 0.00 in0.0 mm 0.00 in/hr0.0 mm/hr 0.00 in0.0 mm
12:02 PM 44.2°F6.8°C 42.1°F5.6°C 92% 2.9 mph ENE4.7 kmh ENE 6.9 mph11.1 kmh 30.33 in1027.1 mb 0.00 in0.0 mm 0.00 in/hr0.0 mm/hr 0.00 in0.0 mm
11:52 AM 44.1°F6.7°C 42.8°F6.0°C 95% 0.9 mph NE1.4 kmh NE 6.0 mph9.7 kmh 30.33 in1027.1 mb 0.00 in0.0 mm 0.00 in/hr0.0 mm/hr 0.00 in0.0 mm
11:42 AM 43.9°F6.6°C 43.2°F6.2°C 97% 0.9 mph NE1.4 kmh NE 4.9 mph7.9 kmh 30.33 in1027.1 mb 0.00 in0.0 mm 0.00 in/hr0.0 mm/hr 0.00 in0.0 mm
11:32 AM 43.0°F6.1°C 42.3°F5.7°C 97% 2.0 mph NE3.2 kmh NE 4.9 mph7.9 kmh 30.34 in1027.4 mb 0.00 in0.0 mm 0.00 in/hr0.0 mm/hr 0.00 in0.0 mm
11:22 AM 43.0°F6.1°C 42.3°F5.7°C 97% 0.9 mph E1.4 kmh E 3.0 mph4.8 kmh 30.34 in1027.4 mb 0.00 in0.0 mm 0.00 in/hr0.0 mm/hr 0.00 in0.0 mm
11:12 AM 42.4°F5.8°C 41.7°F5.4°C 97% 0.9 mph NW1.4 kmh NW 2.9 mph4.7 kmh 30.35 in1027.8 mb 0.00 in0.0 mm 0.00 in/hr0.0 mm/hr 0.00 in0.0 mm
11:02 AM 42.3°F5.7°C 41.5°F5.3°C 97% 0.9 mph NW1.4 kmh NW 2.9 mph4.7 kmh 30.36 in1028.1 mb 0.00 in0.0 mm 0.00 in/hr0.0 mm/hr 0.00 in0.0 mm
10:52 AM 41.7°F5.4°C 41.0°F5.0°C 97% 0.9 mph WNW1.4 kmh WNW 2.0 mph3.2 kmh 30.36 in1028.1 mb 0.00 in0.0 mm 0.00 in/hr0.0 mm/hr 0.00 in0.0 mm
10:42 AM 41.4°F5.2°C 40.6°F4.8°C 97% Calm Calm 3.0 mph4.8 kmh 30.37 in1028.4 mb 0.00 in0.0 mm 0.00 in/hr0.0 mm/hr 0.00 in0.0 mm
10:32 AM 40.8°F4.9°C 40.1°F4.5°C 97% 0.9 mph NW1.4 kmh NW 2.0 mph3.2 kmh 30.38 in1028.8 mb 0.00 in0.0 mm 0.00 in/hr0.0 mm/hr 0.00 in0.0 mm
10:22 AM 40.6°F4.8°C 39.9°F4.4°C 97% Calm Calm 2.0 mph3.2 kmh 30.39 in1029.1 mb 0.00 in0.0 mm 0.00 in/hr0.0 mm/hr 0.00 in0.0 mm
10:12 AM 40.1°F4.5°C 39.4°F4.1°C 97% 0.9 mph WNW1.4 kmh WNW 2.0 mph3.2 kmh 30.39 in1029.1 mb 0.00 in0.0 mm 0.00 in/hr0.0 mm/hr 0.00 in0.0 mm
10:02 AM 39.9°F4.4°C 39.2°F4.0°C 97% Calm Calm 2.0 mph3.2 kmh 30.39 in1029.1 mb 0.00 in0.0 mm 0.00 in/hr0.0 mm/hr 0.00 in0.0 mm
09:52 AM 39.6°F4.2°C 38.8°F3.8°C 97% 0.9 mph NNE1.4 kmh NNE 2.0 mph3.2 kmh 30.39 in1029.1 mb 0.00 in0.0 mm 0.00 in/hr0.0 mm/hr 0.00 in0.0 mm
09:42 AM 39.0°F3.9°C 38.3°F3.5°C 97% 0.9 mph WNW1.4 kmh WNW 2.0 mph3.2 kmh 30.39 in1029.1 mb 0.00 in0.0 mm 0.00 in/hr0.0 mm/hr 0.00 in0.0 mm
09:32 AM 38.8°F3.8°C 38.1°F3.4°C 97% Calm Calm 0.9 mph1.4 kmh 30.39 in1029.1 mb 0.00 in0.0 mm 0.00 in/hr0.0 mm/hr 0.00 in0.0 mm
09:22 AM 38.5°F3.6°C 37.8°F3.2°C 97% Calm Calm 0.9 mph1.4 kmh 30.39 in1029.1 mb 0.00 in0.0 mm 0.00 in/hr0.0 mm/hr 0.00 in0.0 mm
09:12 AM 37.8°F3.2°C 37.0°F2.8°C 97% Calm Calm 2.0 mph3.2 kmh 30.39 in1029.1 mb 0.00 in0.0 mm 0.00 in/hr0.0 mm/hr 0.00 in0.0 mm
09:02 AM 37.6°F3.1°C 36.9°F2.7°C 97% 0.9 mph NW1.4 kmh NW 3.0 mph4.8 kmh 30.39 in1029.1 mb 0.00 in0.0 mm 0.00 in/hr0.0 mm/hr 0.00 in0.0 mm
08:52 AM 37.6°F3.1°C 36.9°F2.7°C 97% 0.9 mph NW1.4 kmh NW 2.9 mph4.7 kmh 30.38 in1028.8 mb 0.00 in0.0 mm 0.00 in/hr0.0 mm/hr 0.00 in0.0 mm
08:42 AM 37.2°F2.9°C 36.5°F2.5°C 97% 0.9 mph WNW1.4 kmh WNW 2.9 mph4.7 kmh 30.38 in1028.8 mb 0.00 in0.0 mm 0.00 in/hr0.0 mm/hr 0.00 in0.0 mm
08:32 AM 36.7°F2.6°C 36.0°F2.2°C 97% 0.9 mph NW1.4 kmh NW 2.9 mph4.7 kmh 30.37 in1028.4 mb 0.00 in0.0 mm 0.00 in/hr0.0 mm/hr 0.00 in0.0 mm
08:22 AM 36.1°F2.3°C 35.4°F1.9°C 97% Calm Calm 2.0 mph3.2 kmh 30.38 in1028.8 mb 0.00 in0.0 mm 0.00 in/hr0.0 mm/hr 0.00 in0.0 mm
08:12 AM 35.8°F2.1°C 35.1°F1.7°C 97% 0.9 mph NW1.4 kmh NW 2.9 mph4.7 kmh 30.38 in1028.8 mb 0.00 in0.0 mm 0.00 in/hr0.0 mm/hr 0.00 in0.0 mm
08:02 AM 35.6°F2.0°C 34.9°F1.6°C 97% 0.9 mph NW1.4 kmh NW 2.9 mph4.7 kmh 30.38 in1028.8 mb 0.00 in0.0 mm 0.00 in/hr0.0 mm/hr 0.00 in0.0 mm
07:52 AM 35.2°F1.8°C 34.5°F1.4°C 97% 0.9 mph NW1.4 kmh NW 2.0 mph3.2 kmh 30.38 in1028.8 mb 0.00 in0.0 mm 0.00 in/hr0.0 mm/hr 0.00 in0.0 mm
07:42 AM 35.1°F1.7°C 34.3°F1.3°C 97% 0.9 mph NW1.4 kmh NW 2.0 mph3.2 kmh 30.37 in1028.4 mb 0.00 in0.0 mm 0.00 in/hr0.0 mm/hr 0.00 in0.0 mm
07:32 AM 34.9°F1.6°C 34.2°F1.2°C 97% 0.9 mph NW1.4 kmh NW 3.0 mph4.8 kmh 30.37 in1028.4 mb 0.00 in0.0 mm 0.00 in/hr0.0 mm/hr 0.00 in0.0 mm
07:22 AM 34.9°F1.6°C 34.2°F1.2°C 97% 0.9 mph NNW1.4 kmh NNW 2.0 mph3.2 kmh 30.38 in1028.8 mb 0.00 in0.0 mm 0.00 in/hr0.0 mm/hr 0.00 in0.0 mm
07:12 AM 34.7°F1.5°C 33.6°F0.9°C 96% Calm Calm 2.0 mph3.2 kmh 30.37 in1028.4 mb 0.00 in0.0 mm 0.00 in/hr0.0 mm/hr 0.00 in0.0 mm
07:02 AM 34.7°F1.5°C 33.6°F0.9°C 96% Calm Calm 2.0 mph3.2 kmh 30.38 in1028.8 mb 0.00 in0.0 mm 0.00 in/hr0.0 mm/hr 0.00 in0.0 mm
06:52 AM 34.9°F1.6°C 34.2°F1.2°C 97% Calm Calm 2.0 mph3.2 kmh 30.38 in1028.8 mb 0.00 in0.0 mm 0.00 in/hr0.0 mm/hr 0.00 in0.0 mm
06:42 AM 34.5°F1.4°C 33.4°F0.8°C 96% Calm Calm 2.9 mph4.7 kmh 30.38 in1028.8 mb 0.00 in0.0 mm 0.00 in/hr0.0 mm/hr 0.00 in0.0 mm
06:32 AM 34.5°F1.4°C 33.4°F0.8°C 96% Calm Calm 2.0 mph3.2 kmh 30.38 in1028.8 mb 0.00 in0.0 mm 0.00 in/hr0.0 mm/hr 0.00 in0.0 mm
06:22 AM 34.5°F1.4°C 33.4°F0.8°C 96% Calm Calm 2.0 mph3.2 kmh 30.37 in1028.4 mb 0.00 in0.0 mm 0.00 in/hr0.0 mm/hr 0.00 in0.0 mm
06:12 AM 34.7°F1.5°C 33.6°F0.9°C 96% 0.9 mph WNW1.4 kmh WNW 2.0 mph3.2 kmh 30.37 in1028.4 mb 0.00 in0.0 mm 0.00 in/hr0.0 mm/hr 0.00 in0.0 mm
06:02 AM 34.5°F1.4°C 33.4°F0.8°C 96% Calm Calm 2.0 mph3.2 kmh 30.37 in1028.4 mb 0.00 in0.0 mm 0.00 in/hr0.0 mm/hr 0.00 in0.0 mm
05:52 AM 34.7°F1.5°C 33.6°F0.9°C 96% 0.9 mph NW1.4 kmh NW 2.0 mph3.2 kmh 30.37 in1028.4 mb 0.00 in0.0 mm 0.00 in/hr0.0 mm/hr 0.00 in0.0 mm
05:42 AM 34.7°F1.5°C 33.6°F0.9°C 96% 0.9 mph NNW1.4 kmh NNW 2.0 mph3.2 kmh 30.36 in1028.1 mb 0.00 in0.0 mm 0.00 in/hr0.0 mm/hr 0.00 in0.0 mm
05:32 AM 34.5°F1.4°C 33.4°F0.8°C 96% 0.9 mph NW1.4 kmh NW 2.9 mph4.7 kmh 30.36 in1028.1 mb 0.00 in0.0 mm 0.00 in/hr0.0 mm/hr 0.00 in0.0 mm
05:22 AM 34.5°F1.4°C 33.4°F0.8°C 96% 0.9 mph WNW1.4 kmh WNW 2.9 mph4.7 kmh 30.36 in1028.1 mb 0.00 in0.0 mm 0.00 in/hr0.0 mm/hr 0.00 in0.0 mm
05:12 AM 34.5°F1.4°C 33.4°F0.8°C 96% 2.0 mph NW3.2 kmh NW 2.9 mph4.7 kmh 30.35 in1027.8 mb 0.00 in0.0 mm 0.00 in/hr0.0 mm/hr 0.00 in0.0 mm
05:02 AM 34.5°F1.4°C 33.4°F0.8°C 96% 2.0 mph NW3.2 kmh NW 4.0 mph6.4 kmh 30.35 in1027.8 mb 0.00 in0.0 mm 0.00 in/hr0.0 mm/hr 0.00 in0.0 mm
04:52 AM 34.2°F1.2°C 33.1°F0.6°C 96% 0.9 mph NW1.4 kmh NW 3.0 mph4.8 kmh 30.35 in1027.8 mb 0.00 in0.0 mm 0.00 in/hr0.0 mm/hr 0.00 in0.0 mm
04:42 AM 34.0°F1.1°C 32.9°F0.5°C 96% 0.9 mph NW1.4 kmh NW 2.9 mph4.7 kmh 30.35 in1027.8 mb 0.00 in0.0 mm 0.00 in/hr0.0 mm/hr 0.00 in0.0 mm
04:32 AM 34.2°F1.2°C 33.1°F0.6°C 96% Calm Calm 0.9 mph1.4 kmh 30.34 in1027.4 mb 0.00 in0.0 mm 0.00 in/hr0.0 mm/hr 0.00 in0.0 mm
04:22 AM 34.2°F1.2°C 33.1°F0.6°C 96% Calm Calm 0.9 mph1.4 kmh 30.34 in1027.4 mb 0.00 in0.0 mm 0.00 in/hr0.0 mm/hr 0.00 in0.0 mm
04:12 AM 34.3°F1.3°C 33.3°F0.7°C 96% Calm Calm 0.9 mph1.4 kmh 30.34 in1027.4 mb 0.00 in0.0 mm 0.00 in/hr0.0 mm/hr 0.00 in0.0 mm
04:02 AM 34.7°F1.5°C 33.6°F0.9°C 96% Calm Calm 0.9 mph1.4 kmh 30.33 in1027.1 mb 0.00 in0.0 mm 0.00 in/hr0.0 mm/hr 0.00 in0.0 mm
03:52 AM 35.2°F1.8°C 34.2°F1.2°C 96% 0.9 mph NW1.4 kmh NW 2.0 mph3.2 kmh 30.34 in1027.4 mb 0.00 in0.0 mm 0.00 in/hr0.0 mm/hr 0.00 in0.0 mm
03:42 AM 35.1°F1.7°C 34.0°F1.1°C 96% 0.9 mph NW1.4 kmh NW 2.0 mph3.2 kmh 30.34 in1027.4 mb 0.00 in0.0 mm 0.00 in/hr0.0 mm/hr 0.00 in0.0 mm
03:32 AM 35.1°F1.7°C 34.0°F1.1°C 96% 0.9 mph NW1.4 kmh NW 2.9 mph4.7 kmh 30.34 in1027.4 mb 0.00 in0.0 mm 0.00 in/hr0.0 mm/hr 0.00 in0.0 mm
03:22 AM 35.1°F1.7°C 34.0°F1.1°C 96% 0.9 mph NW1.4 kmh NW 2.0 mph3.2 kmh 30.34 in1027.4 mb 0.00 in0.0 mm 0.00 in/hr0.0 mm/hr 0.00 in0.0 mm
03:12 AM 34.9°F1.6°C 33.8°F1.0°C 96% Calm Calm 2.9 mph4.7 kmh 30.34 in1027.4 mb 0.00 in0.0 mm 0.00 in/hr0.0 mm/hr 0.00 in0.0 mm
03:02 AM 34.9°F1.6°C 33.8°F1.0°C 96% 0.9 mph NW1.4 kmh NW 2.0 mph3.2 kmh 30.35 in1027.8 mb 0.00 in0.0 mm 0.00 in/hr0.0 mm/hr 0.00 in0.0 mm
02:52 AM 34.9°F1.6°C 33.8°F1.0°C 96% Calm Calm 2.0 mph3.2 kmh 30.35 in1027.8 mb 0.00 in0.0 mm 0.00 in/hr0.0 mm/hr 0.00 in0.0 mm
02:42 AM 35.1°F1.7°C 34.0°F1.1°C 96% 0.9 mph NW1.4 kmh NW 2.0 mph3.2 kmh 30.36 in1028.1 mb 0.00 in0.0 mm 0.00 in/hr0.0 mm/hr 0.00 in0.0 mm
02:32 AM 34.9°F1.6°C 33.8°F1.0°C 96% 0.9 mph NW1.4 kmh NW 2.0 mph3.2 kmh 30.36 in1028.1 mb 0.00 in0.0 mm 0.00 in/hr0.0 mm/hr 0.00 in0.0 mm
02:22 AM 35.1°F1.7°C 34.0°F1.1°C 96% 0.9 mph NW1.4 kmh NW 2.9 mph4.7 kmh 30.35 in1027.8 mb 0.00 in0.0 mm 0.00 in/hr0.0 mm/hr 0.00 in0.0 mm
02:12 AM 35.2°F1.8°C 34.2°F1.2°C 96% 0.9 mph NW1.4 kmh NW 3.0 mph4.8 kmh 30.35 in1027.8 mb 0.00 in0.0 mm 0.00 in/hr0.0 mm/hr 0.00 in0.0 mm
02:02 AM 35.2°F1.8°C 34.2°F1.2°C 96% 0.9 mph WNW1.4 kmh WNW 2.0 mph3.2 kmh 30.35 in1027.8 mb 0.00 in0.0 mm 0.00 in/hr0.0 mm/hr 0.00 in0.0 mm
01:52 AM 35.4°F1.9°C 34.3°F1.3°C 96% Calm Calm 2.0 mph3.2 kmh 30.36 in1028.1 mb 0.00 in0.0 mm 0.00 in/hr0.0 mm/hr 0.00 in0.0 mm
01:42 AM 35.6°F2.0°C 34.5°F1.4°C 96% 0.9 mph NW1.4 kmh NW 2.0 mph3.2 kmh 30.35 in1027.8 mb 0.00 in0.0 mm 0.00 in/hr0.0 mm/hr 0.00 in0.0 mm
01:32 AM 36.0°F2.2°C 34.9°F1.6°C 96% 0.9 mph NW1.4 kmh NW 2.0 mph3.2 kmh 30.35 in1027.8 mb 0.00 in0.0 mm 0.00 in/hr0.0 mm/hr 0.00 in0.0 mm
01:22 AM 35.6°F2.0°C 34.5°F1.4°C 96% Calm Calm 2.0 mph3.2 kmh 30.34 in1027.4 mb 0.00 in0.0 mm 0.00 in/hr0.0 mm/hr 0.00 in0.0 mm
01:12 AM 35.8°F2.1°C 34.7°F1.5°C 96% Calm Calm 2.0 mph3.2 kmh 30.34 in1027.4 mb 0.00 in0.0 mm 0.00 in/hr0.0 mm/hr 0.00 in0.0 mm
01:02 AM 36.0°F2.2°C 34.9°F1.6°C 96% Calm Calm 2.0 mph3.2 kmh 30.34 in1027.4 mb 0.00 in0.0 mm 0.00 in/hr0.0 mm/hr 0.00 in0.0 mm
12:52 AM 36.0°F2.2°C 34.9°F1.6°C 96% Calm Calm 2.0 mph3.2 kmh 30.34 in1027.4 mb 0.00 in0.0 mm 0.00 in/hr0.0 mm/hr 0.00 in0.0 mm
12:42 AM 35.8°F2.1°C 34.7°F1.5°C 96% Calm Calm 2.0 mph3.2 kmh 30.34 in1027.4 mb 0.00 in0.0 mm 0.00 in/hr0.0 mm/hr 0.00 in0.0 mm
12:32 AM 35.8°F2.1°C 34.7°F1.5°C 96% Calm Calm 2.9 mph4.7 kmh 30.34 in1027.4 mb 0.00 in0.0 mm 0.00 in/hr0.0 mm/hr 0.00 in0.0 mm
12:22 AM 35.8°F2.1°C 34.7°F1.5°C 96% 0.9 mph WNW1.4 kmh WNW 3.0 mph4.8 kmh 30.34 in1027.4 mb 0.00 in0.0 mm 0.00 in/hr0.0 mm/hr 0.00 in0.0 mm
12:12 AM 35.8°F2.1°C 34.7°F1.5°C 96% 0.9 mph NW1.4 kmh NW 2.0 mph3.2 kmh 30.34 in1027.4 mb 0.00 in0.0 mm 0.00 in/hr0.0 mm/hr 0.00 in0.0 mm
12:02 AM 35.8°F2.1°C 34.7°F1.5°C 96% Calm Calm 2.0 mph3.2 kmh 30.34 in1027.4 mb 0.00 in0.0 mm 0.00 in/hr0.0 mm/hr 0.00 in0.0 mm